Saturday, July 23, 2016, 10:54 AM EDT

KLKU, Louisa, Louisa County Airport/freeman Field

Location: Louisa, VA, United States Lat: 38.01
Local Time: 10:54 AM EDT (14:54 GMT) Lon: -77.97
Time Zone: US/Eastern Elev: 492 ft

Show me the last for .
Show Decoded

2016-07-23 10:35 METAR KLKU 231435Z AUTO 05003KT 10SM CLR 33/23 A2999 RMK AO2 =
2016-07-23 10:15 METAR KLKU 231415Z AUTO 00000KT 10SM CLR 33/23 A2998 RMK AO2 =
2016-07-23 09:55 METAR KLKU 231355Z AUTO 00000KT 10SM CLR 32/24 A2998 RMK AO2 =
2016-07-23 09:35 METAR KLKU 231335Z AUTO 00000KT 10SM CLR 32/24 A2998 RMK AO2 =
2016-07-23 09:15 METAR KLKU 231315Z AUTO 35003KT 10SM CLR 32/24 A2998 RMK AO2 =
2016-07-23 08:55 METAR KLKU 231255Z AUTO 35003KT 10SM CLR 31/24 A2998 RMK AO2 =
2016-07-23 08:35 METAR KLKU 231235Z AUTO 36003KT 10SM CLR 31/24 A2998 RMK AO2 =
2016-07-23 08:15 METAR KLKU 231215Z AUTO 00000KT 10SM CLR 29/24 A2997 RMK AO2 =
2016-07-23 07:55 METAR KLKU 231155Z AUTO 00000KT 10SM CLR 27/25 A2997 RMK AO2 =
2016-07-23 07:35 METAR KLKU 231135Z AUTO 00000KT 10SM CLR 26/24 A2997 RMK AO2 =
2016-07-23 07:15 METAR KLKU 231115Z AUTO 00000KT 7SM CLR 24/23 A2997 RMK AO2 =
2016-07-23 06:55 METAR KLKU 231055Z AUTO 00000KT 5SM BR CLR 23/22 A2997 RMK AO2 =
2016-07-23 06:35 METAR KLKU 231035Z AUTO 00000KT 1 1/2SM BR VV007 22/21 A2996 RMK AO2 VIS 3/4V3 =
2016-07-23 06:15 METAR KLKU 231015Z AUTO 00000KT 1 1/2SM BR VV007 22/21 A2996 RMK AO2 VIS 1V2 1/2
                 =
2016-07-23 05:55 METAR KLKU 230955Z AUTO 00000KT 1 1/4SM BR VV007 22/21 A2995 RMK AO2 VIS 1/2V3 =
2016-07-23 05:35 METAR KLKU 230935Z AUTO 00000KT 5SM BR CLR 22/21 A2995 RMK AO2 =
2016-07-23 05:15 METAR KLKU 230915Z AUTO 00000KT 3/4SM BR VV005 22/21 A2995 RMK AO2 =
2016-07-23 04:55 METAR KLKU 230855Z AUTO 00000KT 1 1/4SM BR VV007 22/22 A2994 RMK AO2 VIS 1/2V2
                 1/2 =
2016-07-23 04:35 METAR KLKU 230835Z AUTO 00000KT 2 1/2SM BR CLR 22/22 A2994 RMK AO2 VIS 1 1/4V5 =
2016-07-23 04:15 METAR KLKU 230815Z AUTO 00000KT 2SM BR CLR 22/22 A2994 RMK AO2 =
2016-07-23 03:55 METAR KLKU 230755Z AUTO 00000KT 5SM BR CLR 22/22 A2994 RMK AO2 =
2016-07-23 03:35 METAR KLKU 230735Z AUTO 00000KT 5SM BR CLR 23/22 A2995 RMK AO2 =
2016-07-23 03:15 METAR KLKU 230715Z AUTO 00000KT 7SM CLR 23/22 A2995 RMK AO2 =
2016-07-23 02:55 METAR KLKU 230655Z AUTO 00000KT 10SM CLR 23/22 A2995 RMK AO2 =
2016-07-23 02:35 METAR KLKU 230635Z AUTO 00000KT 7SM CLR 23/22 A2995 RMK AO2 =
2016-07-23 02:15 METAR KLKU 230615Z AUTO 00000KT 10SM CLR 23/22 A2995 RMK AO2 =
2016-07-23 01:55 METAR KLKU 230555Z AUTO 00000KT 7SM CLR 24/23 A2996 RMK AO2 =
2016-07-23 01:35 METAR KLKU 230535Z AUTO 00000KT 10SM CLR 24/22 A2996 RMK AO2 =
2016-07-23 01:15 METAR KLKU 230515Z AUTO 00000KT 10SM CLR 24/22 A2996 RMK AO2 =
2016-07-23 00:55 METAR KLKU 230455Z AUTO 00000KT 10SM CLR 24/23 A2996 RMK AO2 =
2016-07-23 00:35 METAR KLKU 230435Z AUTO 00000KT 10SM CLR 24/22 A2996 RMK AO2 =
2016-07-23 00:15 METAR KLKU 230415Z AUTO 00000KT 10SM CLR 24/22 A2996 RMK AO2 =
2016-07-22 23:55 METAR KLKU 230355Z AUTO 00000KT 10SM CLR 24/22 A2997 RMK AO2 =
2016-07-22 23:35 METAR KLKU 230335Z AUTO 00000KT 10SM CLR 24/23 A2997 RMK AO2 =
2016-07-22 23:15 METAR KLKU 230315Z AUTO 00000KT 10SM CLR 24/23 A2997 RMK AO2 =
2016-07-22 22:55 METAR KLKU 230255Z AUTO 00000KT 10SM CLR 24/23 A2996 RMK AO2 =
2016-07-22 22:35 METAR KLKU 230235Z AUTO 00000KT 10SM CLR 24/23 A2996 RMK AO2 =
2016-07-22 22:15 METAR KLKU 230215Z AUTO 00000KT 10SM CLR 25/23 A2996 RMK AO2 =
2016-07-22 21:55 METAR KLKU 230155Z AUTO 00000KT 10SM CLR 26/23 A2996 RMK AO2 =
2016-07-22 21:15 METAR KLKU 230115Z AUTO 00000KT 10SM CLR 27/24 A2994 RMK AO2 =
2016-07-22 20:55 METAR KLKU 230055Z AUTO 00000KT 10SM CLR 27/24 A2994 RMK AO2 =
2016-07-22 20:35 METAR KLKU 230035Z AUTO 00000KT 10SM CLR 27/26 A2994 RMK AO2 =
2016-07-22 20:15 METAR KLKU 230015Z AUTO 00000KT 4SM HZ CLR 29/26 A2994 RMK AO2 =
2016-07-22 19:55 METAR KLKU 222355Z AUTO 00000KT 10SM CLR 31/25 A2994 RMK AO2 =
2016-07-22 19:35 METAR KLKU 222335Z AUTO 00000KT 10SM CLR 31/25 A2994 RMK AO2 =
2016-07-22 19:15 METAR KLKU 222315Z AUTO 00000KT 10SM CLR 32/25 A2994 RMK AO2 =
2016-07-22 18:55 METAR KLKU 222255Z AUTO 00000KT 10SM CLR 32/24 A2994 RMK AO2 =
2016-07-22 18:35 METAR KLKU 222235Z AUTO 00000KT 10SM CLR 33/24 A2994 RMK AO2 =
2016-07-22 18:15 METAR KLKU 222215Z AUTO 00000KT 10SM CLR 33/24 A2995 RMK AO2 =
2016-07-22 17:55 METAR KLKU 222155Z AUTO 00000KT 10SM CLR 33/23 A2995 RMK AO2 =
2016-07-22 17:35 METAR KLKU 222135Z AUTO 19003KT 10SM CLR 33/23 A2996 RMK AO2 =
2016-07-22 17:15 METAR KLKU 222115Z AUTO 00000KT 10SM CLR 33/23 A2996 RMK AO2 =
2016-07-22 16:55 METAR KLKU 222055Z AUTO 00000KT 10SM CLR 34/22 A2997 RMK AO2 =
2016-07-22 16:35 METAR KLKU 222035Z AUTO 00000KT 10SM CLR 34/22 A2998 RMK AO2 =
2016-07-22 16:15 METAR KLKU 222015Z AUTO 00000KT 10SM CLR 34/22 A2999 RMK AO2 =
2016-07-22 15:55 METAR KLKU 221955Z AUTO 00000KT 10SM CLR 34/21 A3000 RMK AO2 =
2016-07-22 15:35 METAR KLKU 221935Z AUTO 02003KT 10SM CLR 34/21 A3001 RMK AO2 =
2016-07-22 15:15 METAR KLKU 221915Z AUTO 00000KT 10SM CLR 34/21 A3001 RMK AO2 =
2016-07-22 14:55 METAR KLKU 221855Z AUTO 08003KT 10SM CLR 33/21 A3002 RMK AO2 =
2016-07-22 14:35 METAR KLKU 221835Z AUTO 06003KT 10SM CLR 33/22 A3002 RMK AO2 =
2016-07-22 14:15 METAR KLKU 221815Z AUTO 06006KT 10SM CLR 33/23 A3002 RMK AO2 =
2016-07-22 13:55 METAR KLKU 221755Z AUTO 06005KT 10SM CLR 33/23 A3003 RMK AO2 =
2016-07-22 13:35 METAR KLKU 221735Z AUTO 02003KT 10SM CLR 33/22 A3003 RMK AO2 =
2016-07-22 13:15 METAR KLKU 221715Z AUTO 07003KT 10SM CLR 33/22 A3003 RMK AO2 =
2016-07-22 12:55 METAR KLKU 221655Z AUTO 32003KT 10SM CLR 32/22 A3004 RMK AO2 =
2016-07-22 12:15 METAR KLKU 221615Z AUTO 00000KT 10SM SCT034 33/23 A3004 RMK AO2 =
2016-07-22 11:55 METAR KLKU 221555Z AUTO 00000KT 10SM CLR 32/23 A3004 RMK AO2 =
2016-07-22 11:35 METAR KLKU 221535Z AUTO 00000KT 10SM CLR 31/23 A3004 RMK AO2 =
2016-07-22 11:15 METAR KLKU 221515Z AUTO 00000KT 10SM CLR 31/24 A3004 RMK AO2 =
2016-07-22 10:55 METAR KLKU 221455Z AUTO 00000KT 10SM CLR 31/24 A3004 RMK AO2 =

Support USWX by starting your Amazon purchase here.